sensor_id;sensor_type;location;lat;lon;timestamp;temperature;humidity
31819;DHT22;18384;48.860;9.188;2022-10-28T00:01:15;15.80;99.90
31819;DHT22;18384;48.860;9.188;2022-10-28T00:03:45;15.70;99.90
31819;DHT22;18384;48.860;9.188;2022-10-28T00:06:21;15.70;99.90
31819;DHT22;18384;48.860;9.188;2022-10-28T00:08:52;15.70;99.90
31819;DHT22;18384;48.860;9.188;2022-10-28T00:11:28;15.70;99.90
31819;DHT22;18384;48.860;9.188;2022-10-28T00:13:58;15.70;99.90
31819;DHT22;18384;48.860;9.188;2022-10-28T00:16:29;15.70;99.90
31819;DHT22;18384;48.860;9.188;2022-10-28T00:19:00;15.60;99.90
31819;DHT22;18384;48.860;9.188;2022-10-28T00:21:31;15.60;99.90
31819;DHT22;18384;48.860;9.188;2022-10-28T00:24:00;15.60;99.90
31819;DHT22;18384;48.860;9.188;2022-10-28T00:26:28;15.50;99.90
31819;DHT22;18384;48.860;9.188;2022-10-28T00:29:02;15.60;99.90
31819;DHT22;18384;48.860;9.188;2022-10-28T00:31:30;15.50;99.90
31819;DHT22;18384;48.860;9.188;2022-10-28T00:33:58;15.50;99.90
31819;DHT22;18384;48.860;9.188;2022-10-28T00:36:28;16.20;99.90
31819;DHT22;18384;48.860;9.188;2022-10-28T00:38:57;15.50;99.90
31819;DHT22;18384;48.860;9.188;2022-10-28T00:41:31;15.50;99.90
31819;DHT22;18384;48.860;9.188;2022-10-28T00:44:01;15.50;99.90
31819;DHT22;18384;48.860;9.188;2022-10-28T00:47:26;15.50;99.90
31819;DHT22;18384;48.860;9.188;2022-10-28T00:50:53;15.60;99.90
31819;DHT22;18384;48.860;9.188;2022-10-28T00:53:30;15.60;99.90
31819;DHT22;18384;48.860;9.188;2022-10-28T00:55:59;15.60;99.90
31819;DHT22;18384;48.860;9.188;2022-10-28T00:58:27;15.60;99.90
31819;DHT22;18384;48.860;9.188;2022-10-28T01:00:54;15.60;99.90
31819;DHT22;18384;48.860;9.188;2022-10-28T01:03:21;15.60;99.90
31819;DHT22;18384;48.860;9.188;2022-10-28T01:05:48;15.60;99.90
31819;DHT22;18384;48.860;9.188;2022-10-28T01:08:17;15.80;99.90
31819;DHT22;18384;48.860;9.188;2022-10-28T01:20:59;15.50;99.90
31819;DHT22;18384;48.860;9.188;2022-10-28T01:33:08;15.30;99.90
31819;DHT22;18384;48.860;9.188;2022-10-28T01:35:52;15.20;99.90
31819;DHT22;18384;48.860;9.188;2022-10-28T01:38:29;15.20;99.90
31819;DHT22;18384;48.860;9.188;2022-10-28T01:41:47;15.20;99.90
31819;DHT22;18384;48.860;9.188;2022-10-28T01:44:34;14.30;99.90
31819;DHT22;18384;48.860;9.188;2022-10-28T01:47:34;15.10;99.90
31819;DHT22;18384;48.860;9.188;2022-10-28T01:50:55;15.10;99.90
31819;DHT22;18384;48.860;9.188;2022-10-28T01:53:28;15.10;99.90
31819;DHT22;18384;48.860;9.188;2022-10-28T01:55:59;15.00;99.90
31819;DHT22;18384;48.860;9.188;2022-10-28T01:58:30;15.00;99.90
31819;DHT22;18384;48.860;9.188;2022-10-28T02:00:58;15.00;99.90
31819;DHT22;18384;48.860;9.188;2022-10-28T02:03:27;15.00;99.90
31819;DHT22;18384;48.860;9.188;2022-10-28T02:05:55;15.20;99.90
31819;DHT22;18384;48.860;9.188;2022-10-28T02:14:10;15.00;99.90
31819;DHT22;18384;48.860;9.188;2022-10-28T02:18:12;15.00;99.90
31819;DHT22;18384;48.860;9.188;2022-10-28T02:21:05;14.90;99.90
31819;DHT22;18384;48.860;9.188;2022-10-28T02:23:54;15.70;99.90
31819;DHT22;18384;48.860;9.188;2022-10-28T02:26:49;15.00;99.90
31819;DHT22;18384;48.860;9.188;2022-10-28T02:29:41;15.00;99.90
31819;DHT22;18384;48.860;9.188;2022-10-28T02:32:18;15.00;99.90
31819;DHT22;18384;48.860;9.188;2022-10-28T02:34:52;15.00;99.90
31819;DHT22;18384;48.860;9.188;2022-10-28T02:37:24;15.00;99.90
31819;DHT22;18384;48.860;9.188;2022-10-28T02:39:55;15.00;99.90
31819;DHT22;18384;48.860;9.188;2022-10-28T02:43:02;15.10;99.90
31819;DHT22;18384;48.860;9.188;2022-10-28T02:45:45;15.00;99.90
31819;DHT22;18384;48.860;9.188;2022-10-28T02:48:39;15.00;99.90
31819;DHT22;18384;48.860;9.188;2022-10-28T02:51:21;15.00;99.90
31819;DHT22;18384;48.860;9.188;2022-10-28T02:55:42;15.00;99.90
31819;DHT22;18384;48.860;9.188;2022-10-28T02:58:09;15.00;99.90
31819;DHT22;18384;48.860;9.188;2022-10-28T03:00:35;15.00;99.90
31819;DHT22;18384;48.860;9.188;2022-10-28T03:03:02;15.10;99.90
31819;DHT22;18384;48.860;9.188;2022-10-28T03:05:29;15.10;99.90
31819;DHT22;18384;48.860;9.188;2022-10-28T03:07:55;15.10;99.90
31819;DHT22;18384;48.860;9.188;2022-10-28T03:10:21;15.10;99.90
31819;DHT22;18384;48.860;9.188;2022-10-28T03:12:47;15.20;99.90
31819;DHT22;18384;48.860;9.188;2022-10-28T03:15:13;15.20;99.90
31819;DHT22;18384;48.860;9.188;2022-10-28T03:17:39;15.20;99.90
31819;DHT22;18384;48.860;9.188;2022-10-28T03:20:06;14.10;99.90
31819;DHT22;18384;48.860;9.188;2022-10-28T03:22:32;15.20;99.90
31819;DHT22;18384;48.860;9.188;2022-10-28T03:24:58;15.20;99.90
31819;DHT22;18384;48.860;9.188;2022-10-28T03:27:25;15.30;99.90
31819;DHT22;18384;48.860;9.188;2022-10-28T03:29:51;15.40;99.90
31819;DHT22;18384;48.860;9.188;2022-10-28T03:32:17;15.90;99.90
31819;DHT22;18384;48.860;9.188;2022-10-28T03:34:43;15.30;99.90
31819;DHT22;18384;48.860;9.188;2022-10-28T03:37:09;15.40;99.90
31819;DHT22;18384;48.860;9.188;2022-10-28T03:39:35;15.40;99.90
31819;DHT22;18384;48.860;9.188;2022-10-28T03:42:01;15.40;99.90
31819;DHT22;18384;48.860;9.188;2022-10-28T03:44:27;15.30;99.90
31819;DHT22;18384;48.860;9.188;2022-10-28T03:46:53;15.30;99.90
31819;DHT22;18384;48.860;9.188;2022-10-28T03:49:20;15.60;99.90
31819;DHT22;18384;48.860;9.188;2022-10-28T03:51:46;15.30;99.90
31819;DHT22;18384;48.860;9.188;2022-10-28T03:54:13;15.40;99.90
31819;DHT22;18384;48.860;9.188;2022-10-28T03:56:39;15.40;99.90
31819;DHT22;18384;48.860;9.188;2022-10-28T03:59:09;15.50;99.90
31819;DHT22;18384;48.860;9.188;2022-10-28T04:01:35;15.40;99.90
31819;DHT22;18384;48.860;9.188;2022-10-28T04:04:01;15.40;99.90
31819;DHT22;18384;48.860;9.188;2022-10-28T04:06:27;15.40;99.90
31819;DHT22;18384;48.860;9.188;2022-10-28T04:08:53;15.40;99.90
31819;DHT22;18384;48.860;9.188;2022-10-28T04:11:19;15.40;99.90
31819;DHT22;18384;48.860;9.188;2022-10-28T04:13:45;15.40;99.90
31819;DHT22;18384;48.860;9.188;2022-10-28T04:16:11;15.40;99.90
31819;DHT22;18384;48.860;9.188;2022-10-28T04:18:38;15.40;99.90
31819;DHT22;18384;48.860;9.188;2022-10-28T04:21:04;15.40;99.90
31819;DHT22;18384;48.860;9.188;2022-10-28T04:23:30;15.30;99.90
31819;DHT22;18384;48.860;9.188;2022-10-28T04:25:56;15.30;99.90
31819;DHT22;18384;48.860;9.188;2022-10-28T04:28:22;15.30;99.90
31819;DHT22;18384;48.860;9.188;2022-10-28T04:30:49;15.30;99.90
31819;DHT22;18384;48.860;9.188;2022-10-28T04:33:15;15.30;99.90
31819;DHT22;18384;48.860;9.188;2022-10-28T04:35:41;15.30;99.90
31819;DHT22;18384;48.860;9.188;2022-10-28T04:38:11;15.50;99.90
31819;DHT22;18384;48.860;9.188;2022-10-28T04:40:38;15.30;99.90
31819;DHT22;18384;48.860;9.188;2022-10-28T04:43:04;15.30;99.90
31819;DHT22;18384;48.860;9.188;2022-10-28T04:45:31;15.30;99.90
31819;DHT22;18384;48.860;9.188;2022-10-28T04:48:00;15.30;99.90
31819;DHT22;18384;48.860;9.188;2022-10-28T04:50:27;15.30;99.90
31819;DHT22;18384;48.860;9.188;2022-10-28T04:52:53;15.30;99.90
31819;DHT22;18384;48.860;9.188;2022-10-28T04:55:19;15.30;99.90
31819;DHT22;18384;48.860;9.188;2022-10-28T04:57:56;15.30;99.90
31819;DHT22;18384;48.860;9.188;2022-10-28T05:00:24;15.30;99.90
31819;DHT22;18384;48.860;9.188;2022-10-28T05:02:52;15.30;99.90
31819;DHT22;18384;48.860;9.188;2022-10-28T05:05:18;15.30;99.90
31819;DHT22;18384;48.860;9.188;2022-10-28T05:07:45;15.30;99.90
31819;DHT22;18384;48.860;9.188;2022-10-28T05:10:12;15.30;99.90
31819;DHT22;18384;48.860;9.188;2022-10-28T05:12:43;15.30;99.90
31819;DHT22;18384;48.860;9.188;2022-10-28T05:15:11;15.40;99.90
31819;DHT22;18384;48.860;9.188;2022-10-28T05:17:42;15.40;99.90
31819;DHT22;18384;48.860;9.188;2022-10-28T05:20:10;15.40;99.90
31819;DHT22;18384;48.860;9.188;2022-10-28T05:22:36;15.30;99.90
31819;DHT22;18384;48.860;9.188;2022-10-28T05:25:03;15.30;99.90
31819;DHT22;18384;48.860;9.188;2022-10-28T05:27:29;15.30;99.90
31819;DHT22;18384;48.860;9.188;2022-10-28T05:29:55;15.30;99.90
31819;DHT22;18384;48.860;9.188;2022-10-28T05:32:21;15.30;99.90
31819;DHT22;18384;48.860;9.188;2022-10-28T05:34:47;15.30;99.90
31819;DHT22;18384;48.860;9.188;2022-10-28T05:37:13;15.20;99.90
31819;DHT22;18384;48.860;9.188;2022-10-28T05:39:39;15.10;99.90
31819;DHT22;18384;48.860;9.188;2022-10-28T05:42:06;15.10;99.90
31819;DHT22;18384;48.860;9.188;2022-10-28T05:44:32;15.10;99.90
31819;DHT22;18384;48.860;9.188;2022-10-28T05:46:58;15.10;99.90
31819;DHT22;18384;48.860;9.188;2022-10-28T05:49:24;15.00;99.90
31819;DHT22;18384;48.860;9.188;2022-10-28T05:51:50;15.00;99.90
31819;DHT22;18384;48.860;9.188;2022-10-28T05:54:16;15.00;99.90
31819;DHT22;18384;48.860;9.188;2022-10-28T05:56:42;14.90;99.90
31819;DHT22;18384;48.860;9.188;2022-10-28T05:59:08;14.90;99.90
31819;DHT22;18384;48.860;9.188;2022-10-28T06:01:34;14.90;99.90
31819;DHT22;18384;48.860;9.188;2022-10-28T06:04:01;15.00;99.90
31819;DHT22;18384;48.860;9.188;2022-10-28T06:06:27;14.90;99.90
31819;DHT22;18384;48.860;9.188;2022-10-28T06:08:53;14.90;99.90
31819;DHT22;18384;48.860;9.188;2022-10-28T06:11:19;14.90;99.90
31819;DHT22;18384;48.860;9.188;2022-10-28T06:13:46;14.80;99.90
31819;DHT22;18384;48.860;9.188;2022-10-28T06:16:13;14.80;99.90
31819;DHT22;18384;48.860;9.188;2022-10-28T06:18:40;14.90;99.90
31819;DHT22;18384;48.860;9.188;2022-10-28T06:21:06;15.20;99.90
31819;DHT22;18384;48.860;9.188;2022-10-28T06:23:32;14.80;99.90
31819;DHT22;18384;48.860;9.188;2022-10-28T06:26:00;14.80;99.90
31819;DHT22;18384;48.860;9.188;2022-10-28T06:28:27;14.70;99.90
31819;DHT22;18384;48.860;9.188;2022-10-28T06:30:54;14.80;99.90
31819;DHT22;18384;48.860;9.188;2022-10-28T06:33:26;14.90;99.90
31819;DHT22;18384;48.860;9.188;2022-10-28T06:35:56;15.20;99.90
31819;DHT22;18384;48.860;9.188;2022-10-28T06:38:23;14.90;99.90
31819;DHT22;18384;48.860;9.188;2022-10-28T06:40:50;15.10;99.90
31819;DHT22;18384;48.860;9.188;2022-10-28T06:43:16;14.90;99.90
31819;DHT22;18384;48.860;9.188;2022-10-28T06:45:42;15.00;99.90
31819;DHT22;18384;48.860;9.188;2022-10-28T06:48:11;15.00;99.90
31819;DHT22;18384;48.860;9.188;2022-10-28T06:50:38;15.00;99.90
31819;DHT22;18384;48.860;9.188;2022-10-28T06:53:03;15.00;99.90
31819;DHT22;18384;48.860;9.188;2022-10-28T06:55:30;15.00;99.90
31819;DHT22;18384;48.860;9.188;2022-10-28T06:58:01;15.00;99.90
31819;DHT22;18384;48.860;9.188;2022-10-28T07:00:28;15.00;99.90
31819;DHT22;18384;48.860;9.188;2022-10-28T07:02:56;15.00;99.90
31819;DHT22;18384;48.860;9.188;2022-10-28T07:05:23;15.00;99.90
31819;DHT22;18384;48.860;9.188;2022-10-28T07:07:50;15.00;99.90
31819;DHT22;18384;48.860;9.188;2022-10-28T07:10:16;15.10;99.90
31819;DHT22;18384;48.860;9.188;2022-10-28T07:12:42;15.10;99.90
31819;DHT22;18384;48.860;9.188;2022-10-28T07:15:09;15.10;99.90
31819;DHT22;18384;48.860;9.188;2022-10-28T07:17:35;15.10;99.90
31819;DHT22;18384;48.860;9.188;2022-10-28T07:20:02;15.20;99.90
31819;DHT22;18384;48.860;9.188;2022-10-28T07:22:28;15.20;99.90
31819;DHT22;18384;48.860;9.188;2022-10-28T07:24:54;15.20;99.90
31819;DHT22;18384;48.860;9.188;2022-10-28T07:27:20;15.20;99.90
31819;DHT22;18384;48.860;9.188;2022-10-28T07:29:46;15.30;99.90
31819;DHT22;18384;48.860;9.188;2022-10-28T07:32:12;15.30;99.90
31819;DHT22;18384;48.860;9.188;2022-10-28T07:34:38;15.40;99.90
31819;DHT22;18384;48.860;9.188;2022-10-28T07:37:04;15.40;99.90
31819;DHT22;18384;48.860;9.188;2022-10-28T07:39:31;15.50;99.90
31819;DHT22;18384;48.860;9.188;2022-10-28T07:41:57;15.60;99.90
31819;DHT22;18384;48.860;9.188;2022-10-28T07:44:26;15.80;99.90
31819;DHT22;18384;48.860;9.188;2022-10-28T07:46:52;15.90;99.90
31819;DHT22;18384;48.860;9.188;2022-10-28T07:49:18;16.00;99.90
31819;DHT22;18384;48.860;9.188;2022-10-28T07:51:44;16.10;99.90
31819;DHT22;18384;48.860;9.188;2022-10-28T07:54:10;16.20;99.90
31819;DHT22;18384;48.860;9.188;2022-10-28T07:56:36;16.30;99.90
31819;DHT22;18384;48.860;9.188;2022-10-28T07:59:02;16.30;99.90
31819;DHT22;18384;48.860;9.188;2022-10-28T08:01:28;16.40;99.90
31819;DHT22;18384;48.860;9.188;2022-10-28T08:03:56;15.10;99.90
31819;DHT22;18384;48.860;9.188;2022-10-28T08:06:22;16.50;99.90
31819;DHT22;18384;48.860;9.188;2022-10-28T08:08:51;16.50;99.90
31819;DHT22;18384;48.860;9.188;2022-10-28T08:11:20;16.60;99.90
31819;DHT22;18384;48.860;9.188;2022-10-28T08:13:52;16.60;99.90
31819;DHT22;18384;48.860;9.188;2022-10-28T08:16:20;16.70;99.90
31819;DHT22;18384;48.860;9.188;2022-10-28T08:18:46;16.70;99.90
31819;DHT22;18384;48.860;9.188;2022-10-28T08:21:13;16.80;99.90
31819;DHT22;18384;48.860;9.188;2022-10-28T08:23:40;16.80;99.90
31819;DHT22;18384;48.860;9.188;2022-10-28T08:26:11;16.90;99.90
31819;DHT22;18384;48.860;9.188;2022-10-28T08:28:38;16.90;99.90
31819;DHT22;18384;48.860;9.188;2022-10-28T08:31:05;17.10;99.90
31819;DHT22;18384;48.860;9.188;2022-10-28T08:33:37;17.10;99.90
31819;DHT22;18384;48.860;9.188;2022-10-28T08:36:14;17.10;99.90
31819;DHT22;18384;48.860;9.188;2022-10-28T08:38:45;17.10;99.90
31819;DHT22;18384;48.860;9.188;2022-10-28T08:41:43;17.20;99.90
31819;DHT22;18384;48.860;9.188;2022-10-28T08:44:52;17.20;99.90
31819;DHT22;18384;48.860;9.188;2022-10-28T08:50:52;17.30;99.90
31819;DHT22;18384;48.860;9.188;2022-10-28T08:53:28;17.40;99.90
31819;DHT22;18384;48.860;9.188;2022-10-28T08:56:09;17.50;99.90
31819;DHT22;18384;48.860;9.188;2022-10-28T08:58:41;17.50;99.90
31819;DHT22;18384;48.860;9.188;2022-10-28T09:01:18;17.60;99.90
31819;DHT22;18384;48.860;9.188;2022-10-28T09:04:01;17.60;99.90
31819;DHT22;18384;48.860;9.188;2022-10-28T09:06:31;17.70;99.90
31819;DHT22;18384;48.860;9.188;2022-10-28T09:08:57;17.70;99.90
31819;DHT22;18384;48.860;9.188;2022-10-28T09:11:42;17.80;99.90
31819;DHT22;18384;48.860;9.188;2022-10-28T09:14:59;17.90;99.90
31819;DHT22;18384;48.860;9.188;2022-10-28T09:17:54;17.90;99.90
31819;DHT22;18384;48.860;9.188;2022-10-28T09:21:05;18.10;99.90
31819;DHT22;18384;48.860;9.188;2022-10-28T09:23:46;18.20;99.90
31819;DHT22;18384;48.860;9.188;2022-10-28T09:30:47;18.30;99.90
31819;DHT22;18384;48.860;9.188;2022-10-28T09:36:51;18.20;99.90
31819;DHT22;18384;48.860;9.188;2022-10-28T09:40:52;18.10;99.90
31819;DHT22;18384;48.860;9.188;2022-10-28T09:43:37;17.90;99.90
31819;DHT22;18384;48.860;9.188;2022-10-28T09:46:13;17.80;99.90
31819;DHT22;18384;48.860;9.188;2022-10-28T09:48:52;17.80;99.90
31819;DHT22;18384;48.860;9.188;2022-10-28T09:51:27;17.80;99.90
31819;DHT22;18384;48.860;9.188;2022-10-28T09:53:58;17.90;99.90
31819;DHT22;18384;48.860;9.188;2022-10-28T09:56:26;17.90;99.90
31819;DHT22;18384;48.860;9.188;2022-10-28T09:58:56;17.90;99.90
31819;DHT22;18384;48.860;9.188;2022-10-28T10:01:25;18.00;99.90
31819;DHT22;18384;48.860;9.188;2022-10-28T10:03:54;18.20;99.90
31819;DHT22;18384;48.860;9.188;2022-10-28T10:06:28;18.40;99.90
31819;DHT22;18384;48.860;9.188;2022-10-28T10:09:00;18.50;99.90
31819;DHT22;18384;48.860;9.188;2022-10-28T10:11:37;18.60;99.90
31819;DHT22;18384;48.860;9.188;2022-10-28T10:14:10;18.80;99.90
31819;DHT22;18384;48.860;9.188;2022-10-28T10:16:59;18.90;99.90
31819;DHT22;18384;48.860;9.188;2022-10-28T10:19:57;19.10;99.90
31819;DHT22;18384;48.860;9.188;2022-10-28T10:22:38;19.30;99.90
31819;DHT22;18384;48.860;9.188;2022-10-28T10:25:23;19.50;99.80
31819;DHT22;18384;48.860;9.188;2022-10-28T10:27:54;19.60;99.60
31819;DHT22;18384;48.860;9.188;2022-10-28T10:30:49;19.70;99.60
31819;DHT22;18384;48.860;9.188;2022-10-28T10:33:37;19.70;99.60
31819;DHT22;18384;48.860;9.188;2022-10-28T10:36:13;19.70;99.40
31819;DHT22;18384;48.860;9.188;2022-10-28T10:38:50;19.70;99.40
31819;DHT22;18384;48.860;9.188;2022-10-28T10:41:41;19.60;99.80
31819;DHT22;18384;48.860;9.188;2022-10-28T10:44:31;19.60;99.90
31819;DHT22;18384;48.860;9.188;2022-10-28T10:47:20;19.50;99.90
31819;DHT22;18384;48.860;9.188;2022-10-28T10:49:47;19.40;99.90
31819;DHT22;18384;48.860;9.188;2022-10-28T10:52:23;19.40;99.90
31819;DHT22;18384;48.860;9.188;2022-10-28T10:55:06;19.40;99.90
31819;DHT22;18384;48.860;9.188;2022-10-28T10:57:46;19.40;99.90
31819;DHT22;18384;48.860;9.188;2022-10-28T11:00:16;19.40;99.90
31819;DHT22;18384;48.860;9.188;2022-10-28T11:02:46;19.50;99.70
31819;DHT22;18384;48.860;9.188;2022-10-28T11:05:19;19.50;99.50
31819;DHT22;18384;48.860;9.188;2022-10-28T11:07:48;19.60;99.50
31819;DHT22;18384;48.860;9.188;2022-10-28T11:10:24;19.70;99.10
31819;DHT22;18384;48.860;9.188;2022-10-28T11:12:52;19.70;99.30
31819;DHT22;18384;48.860;9.188;2022-10-28T11:15:26;19.70;99.80
31819;DHT22;18384;48.860;9.188;2022-10-28T11:18:17;19.80;99.40
31819;DHT22;18384;48.860;9.188;2022-10-28T11:21:06;19.80;99.20
31819;DHT22;18384;48.860;9.188;2022-10-28T11:26:14;19.80;99.00
31819;DHT22;18384;48.860;9.188;2022-10-28T11:42:44;20.00;98.80
31819;DHT22;18384;48.860;9.188;2022-10-28T11:45:30;20.10;99.00
31819;DHT22;18384;48.860;9.188;2022-10-28T11:56:26;20.10;99.10
31819;DHT22;18384;48.860;9.188;2022-10-28T11:59:19;19.90;99.90
31819;DHT22;18384;48.860;9.188;2022-10-28T12:15:16;20.00;99.90
31819;DHT22;18384;48.860;9.188;2022-10-28T12:24:22;20.30;99.90
31819;DHT22;18384;48.860;9.188;2022-10-28T12:26:57;20.40;99.90
31819;DHT22;18384;48.860;9.188;2022-10-28T12:30:34;20.50;99.40
31819;DHT22;18384;48.860;9.188;2022-10-28T12:34:07;20.60;99.20
31819;DHT22;18384;48.860;9.188;2022-10-28T12:36:44;20.90;98.90
31819;DHT22;18384;48.860;9.188;2022-10-28T12:39:21;21.00;98.90
31819;DHT22;18384;48.860;9.188;2022-10-28T12:42:10;21.10;98.80
31819;DHT22;18384;48.860;9.188;2022-10-28T12:44:39;22.50;98.70
31819;DHT22;18384;48.860;9.188;2022-10-28T12:47:18;21.30;98.20
31819;DHT22;18384;48.860;9.188;2022-10-28T12:50:12;21.40;98.10
31819;DHT22;18384;48.860;9.188;2022-10-28T12:53:34;21.50;98.00
31819;DHT22;18384;48.860;9.188;2022-10-28T12:56:11;21.60;97.80
31819;DHT22;18384;48.860;9.188;2022-10-28T13:00:27;21.50;97.80
31819;DHT22;18384;48.860;9.188;2022-10-28T13:03:04;21.50;98.20
31819;DHT22;18384;48.860;9.188;2022-10-28T13:17:55;21.40;97.90
31819;DHT22;18384;48.860;9.188;2022-10-28T13:21:04;21.10;98.40
31819;DHT22;18384;48.860;9.188;2022-10-28T13:24:17;21.10;98.30
31819;DHT22;18384;48.860;9.188;2022-10-28T13:28:18;21.00;98.70
31819;DHT22;18384;48.860;9.188;2022-10-28T13:30:57;20.90;98.70
31819;DHT22;18384;48.860;9.188;2022-10-28T13:33:27;20.90;98.70
31819;DHT22;18384;48.860;9.188;2022-10-28T13:36:19;20.70;98.90
31819;DHT22;18384;48.860;9.188;2022-10-28T13:39:02;20.90;98.80
31819;DHT22;18384;48.860;9.188;2022-10-28T13:41:38;20.90;99.10
31819;DHT22;18384;48.860;9.188;2022-10-28T13:44:25;20.90;99.00
31819;DHT22;18384;48.860;9.188;2022-10-28T13:47:50;20.90;99.20
31819;DHT22;18384;48.860;9.188;2022-10-28T13:50:25;21.00;99.10
31819;DHT22;18384;48.860;9.188;2022-10-28T13:53:31;21.00;99.20
31819;DHT22;18384;48.860;9.188;2022-10-28T13:56:29;21.00;99.30
31819;DHT22;18384;48.860;9.188;2022-10-28T13:59:19;21.10;99.30
31819;DHT22;18384;48.860;9.188;2022-10-28T14:02:03;21.10;99.20
31819;DHT22;18384;48.860;9.188;2022-10-28T14:04:40;21.20;99.10
31819;DHT22;18384;48.860;9.188;2022-10-28T14:07:17;21.20;99.50
31819;DHT22;18384;48.860;9.188;2022-10-28T14:09:48;21.20;99.30
31819;DHT22;18384;48.860;9.188;2022-10-28T14:12:21;21.20;99.10
31819;DHT22;18384;48.860;9.188;2022-10-28T14:15:36;21.30;99.20
31819;DHT22;18384;48.860;9.188;2022-10-28T14:19:15;21.20;99.40
31819;DHT22;18384;48.860;9.188;2022-10-28T14:22:00;21.30;99.10
31819;DHT22;18384;48.860;9.188;2022-10-28T14:24:42;21.30;99.20
31819;DHT22;18384;48.860;9.188;2022-10-28T14:27:26;19.10;98.60
31819;DHT22;18384;48.860;9.188;2022-10-28T14:30:16;21.30;99.10
31819;DHT22;18384;48.860;9.188;2022-10-28T14:32:55;21.30;99.30
31819;DHT22;18384;48.860;9.188;2022-10-28T14:35:38;21.30;99.40
31819;DHT22;18384;48.860;9.188;2022-10-28T14:40:12;21.20;99.40
31819;DHT22;18384;48.860;9.188;2022-10-28T14:46:34;21.10;99.50
31819;DHT22;18384;48.860;9.188;2022-10-28T14:56:29;21.10;99.50
31819;DHT22;18384;48.860;9.188;2022-10-28T15:05:20;20.70;99.90
31819;DHT22;18384;48.860;9.188;2022-10-28T15:07:49;20.70;99.90
31819;DHT22;18384;48.860;9.188;2022-10-28T15:10:17;20.60;99.90
31819;DHT22;18384;48.860;9.188;2022-10-28T15:12:48;20.60;99.90
31819;DHT22;18384;48.860;9.188;2022-10-28T15:15:17;20.60;99.90
31819;DHT22;18384;48.860;9.188;2022-10-28T15:17:44;20.50;99.90
31819;DHT22;18384;48.860;9.188;2022-10-28T15:20:20;20.50;99.90
31819;DHT22;18384;48.860;9.188;2022-10-28T15:23:11;20.40;99.90
31819;DHT22;18384;48.860;9.188;2022-10-28T15:25:45;20.30;99.90
31819;DHT22;18384;48.860;9.188;2022-10-28T15:28:12;20.30;99.90
31819;DHT22;18384;48.860;9.188;2022-10-28T15:30:41;20.20;99.90
31819;DHT22;18384;48.860;9.188;2022-10-28T15:33:36;20.20;99.90
31819;DHT22;18384;48.860;9.188;2022-10-28T15:36:21;20.20;99.90
31819;DHT22;18384;48.860;9.188;2022-10-28T15:39:34;20.00;99.90
31819;DHT22;18384;48.860;9.188;2022-10-28T15:42:00;19.90;99.90
31819;DHT22;18384;48.860;9.188;2022-10-28T15:44:37;19.90;99.90
31819;DHT22;18384;48.860;9.188;2022-10-28T15:47:15;19.80;99.90
31819;DHT22;18384;48.860;9.188;2022-10-28T15:50:01;19.70;99.90
31819;DHT22;18384;48.860;9.188;2022-10-28T15:53:42;19.70;99.90
31819;DHT22;18384;48.860;9.188;2022-10-28T15:56:28;19.60;99.90
31819;DHT22;18384;48.860;9.188;2022-10-28T15:59:16;19.60;99.90
31819;DHT22;18384;48.860;9.188;2022-10-28T16:01:45;19.50;99.90
31819;DHT22;18384;48.860;9.188;2022-10-28T16:04:40;19.50;99.90
31819;DHT22;18384;48.860;9.188;2022-10-28T16:07:10;19.40;99.90
31819;DHT22;18384;48.860;9.188;2022-10-28T16:09:42;19.40;99.90
31819;DHT22;18384;48.860;9.188;2022-10-28T16:12:23;19.40;99.90
31819;DHT22;18384;48.860;9.188;2022-10-28T16:14:59;19.30;99.90
31819;DHT22;18384;48.860;9.188;2022-10-28T16:17:29;19.30;99.90
31819;DHT22;18384;48.860;9.188;2022-10-28T16:20:03;19.20;99.90
31819;DHT22;18384;48.860;9.188;2022-10-28T16:22:37;19.20;99.90
31819;DHT22;18384;48.860;9.188;2022-10-28T16:25:18;19.10;99.90
31819;DHT22;18384;48.860;9.188;2022-10-28T16:27:49;19.10;99.90
31819;DHT22;18384;48.860;9.188;2022-10-28T16:30:16;19.10;99.90
31819;DHT22;18384;48.860;9.188;2022-10-28T16:32:43;19.10;99.90
31819;DHT22;18384;48.860;9.188;2022-10-28T16:35:19;18.90;99.90
31819;DHT22;18384;48.860;9.188;2022-10-28T16:37:48;18.90;99.90
31819;DHT22;18384;48.860;9.188;2022-10-28T16:40:15;18.70;99.90
31819;DHT22;18384;48.860;9.188;2022-10-28T16:42:42;18.80;99.90
31819;DHT22;18384;48.860;9.188;2022-10-28T16:45:15;18.80;99.90
31819;DHT22;18384;48.860;9.188;2022-10-28T16:47:43;18.70;99.90
31819;DHT22;18384;48.860;9.188;2022-10-28T16:50:10;18.60;99.90
31819;DHT22;18384;48.860;9.188;2022-10-28T16:52:36;18.60;99.90
31819;DHT22;18384;48.860;9.188;2022-10-28T16:55:02;18.50;99.90
31819;DHT22;18384;48.860;9.188;2022-10-28T16:57:28;18.50;99.90
31819;DHT22;18384;48.860;9.188;2022-10-28T16:59:54;18.50;99.90
31819;DHT22;18384;48.860;9.188;2022-10-28T17:02:31;18.40;99.90
31819;DHT22;18384;48.860;9.188;2022-10-28T17:04:58;18.30;99.90
31819;DHT22;18384;48.860;9.188;2022-10-28T17:07:26;18.30;99.90
31819;DHT22;18384;48.860;9.188;2022-10-28T17:09:52;18.30;99.90
31819;DHT22;18384;48.860;9.188;2022-10-28T17:12:21;18.30;99.90
31819;DHT22;18384;48.860;9.188;2022-10-28T17:14:49;18.20;99.90
31819;DHT22;18384;48.860;9.188;2022-10-28T17:17:15;18.20;99.90
31819;DHT22;18384;48.860;9.188;2022-10-28T17:19:41;18.00;99.90
31819;DHT22;18384;48.860;9.188;2022-10-28T17:22:10;17.90;99.90
31819;DHT22;18384;48.860;9.188;2022-10-28T17:24:37;17.90;99.90
31819;DHT22;18384;48.860;9.188;2022-10-28T17:27:05;17.90;99.90
31819;DHT22;18384;48.860;9.188;2022-10-28T17:29:31;17.80;99.90
31819;DHT22;18384;48.860;9.188;2022-10-28T17:31:58;17.80;99.90
31819;DHT22;18384;48.860;9.188;2022-10-28T17:34:25;17.70;99.90
31819;DHT22;18384;48.860;9.188;2022-10-28T17:36:51;17.70;99.90
31819;DHT22;18384;48.860;9.188;2022-10-28T17:39:17;17.70;99.90
31819;DHT22;18384;48.860;9.188;2022-10-28T17:41:43;17.60;99.90
31819;DHT22;18384;48.860;9.188;2022-10-28T17:44:10;17.60;99.90
31819;DHT22;18384;48.860;9.188;2022-10-28T17:46:36;17.60;99.90
31819;DHT22;18384;48.860;9.188;2022-10-28T17:49:02;17.60;99.90
31819;DHT22;18384;48.860;9.188;2022-10-28T17:51:34;17.60;99.90
31819;DHT22;18384;48.860;9.188;2022-10-28T17:54:00;17.60;99.90
31819;DHT22;18384;48.860;9.188;2022-10-28T17:56:26;18.10;99.90
31819;DHT22;18384;48.860;9.188;2022-10-28T17:58:53;17.60;99.90
31819;DHT22;18384;48.860;9.188;2022-10-28T18:01:19;17.60;99.90
31819;DHT22;18384;48.860;9.188;2022-10-28T18:03:49;17.60;99.90
31819;DHT22;18384;48.860;9.188;2022-10-28T18:06:15;17.50;99.90
31819;DHT22;18384;48.860;9.188;2022-10-28T18:08:42;17.50;99.90
31819;DHT22;18384;48.860;9.188;2022-10-28T18:11:10;17.60;99.90
31819;DHT22;18384;48.860;9.188;2022-10-28T18:13:40;17.50;99.90
31819;DHT22;18384;48.860;9.188;2022-10-28T18:16:14;17.40;99.90